logo
Rechercher aéroport 
image banner adimage banner adimage banner ad
image banner ad

FAEAGE - Eagle-East

Situé à , South Africa

ICAO - , IATA -

Données fournies par Airmate  

Information générale

Coordonnées: S24°8'45" E28°26'45"
Élévation : 4613 feet MSL.
 
Voir autres Aéroports à Limpopo

Données opérationnelles

Special qualification required
Heure actuelle UTC:
Heure actuelle locale:
Météo à : - ( 0 km )
METAR: PPIZ 220841Z AUTO 05022G28KT 10SM OVC011 M03/M04 A2986 RMK AO2 PK WND 04032/0817 SNE19 P0000 FZRANO
Voir NOTAMs / SUP AIP / TFR affectant cet aéroport [VIEW]
Fréquences de communication: [VIEW]

Pistes:

Identifiant RWYQFULongueur (ft)Largeur (ft)SurfaceLDA (ft)
1078°459066SAND
28258°459066SAND

Coordonnées de l'aéroport

Adresse: South Africa

Vue satellite de FAEAGE